createdAt,value
2019-01-15T00:00:40.199Z,18.27
2019-01-15T00:03:09.621Z,11.37
2019-01-15T00:05:39.065Z,9.93
2019-01-15T00:08:08.600Z,9.57
2019-01-15T00:10:38.028Z,13.20
2019-01-15T00:13:07.540Z,7.97
2019-01-15T00:15:37.005Z,6.00
2019-01-15T00:18:06.509Z,8.67
2019-01-15T00:20:35.994Z,18.67
2019-01-15T00:23:05.546Z,13.00
2019-01-15T00:25:34.976Z,10.83
2019-01-15T00:28:04.657Z,11.57
2019-01-15T00:30:34.104Z,14.33
2019-01-15T00:33:03.541Z,13.70
2019-01-15T00:35:33.033Z,15.87
2019-01-15T00:38:02.471Z,14.83
2019-01-15T00:40:31.901Z,12.77
2019-01-15T00:43:01.361Z,14.90
2019-01-15T00:45:30.807Z,7.97
2019-01-15T00:48:00.227Z,10.53
2019-01-15T00:50:29.723Z,18.00
2019-01-15T00:52:59.128Z,13.07
2019-01-15T00:55:28.547Z,10.40
2019-01-15T00:57:58.020Z,14.13
2019-01-15T01:00:27.461Z,9.43
2019-01-15T01:02:56.900Z,18.07
2019-01-15T01:05:26.679Z,12.00
2019-01-15T01:07:56.112Z,11.27
2019-01-15T01:10:25.599Z,11.67
2019-01-15T01:12:55.094Z,13.70
2019-01-15T01:15:24.522Z,11.90
2019-01-15T01:17:53.965Z,11.73
2019-01-15T01:20:23.895Z,8.83
2019-01-15T01:22:53.513Z,10.83
2019-01-15T01:25:22.971Z,11.33
2019-01-15T01:27:52.435Z,14.20
2019-01-15T01:30:23.361Z,8.83
2019-01-15T01:32:52.795Z,12.80
2019-01-15T01:35:22.281Z,14.87
2019-01-15T01:37:51.751Z,12.60
2019-01-15T01:40:21.516Z,8.77
2019-01-15T01:42:50.993Z,10.83
2019-01-15T01:45:20.644Z,8.23
2019-01-15T01:47:50.114Z,10.50
2019-01-15T01:50:19.614Z,10.83
2019-01-15T01:52:49.076Z,11.90
2019-01-15T01:55:18.499Z,12.50
2019-01-15T01:57:47.991Z,13.53
2019-01-15T02:00:21.518Z,7.40
2019-01-15T02:02:51.054Z,10.70
2019-01-15T02:05:20.483Z,11.67
2019-01-15T02:07:50.045Z,11.47
2019-01-15T02:10:20.339Z,12.77
2019-01-15T02:12:50.373Z,9.73
2019-01-15T02:15:22.120Z,12.77
2019-01-15T02:17:51.619Z,13.07
2019-01-15T02:20:21.364Z,16.67
2019-01-15T02:22:50.919Z,15.07
2019-01-15T02:25:20.583Z,12.23
2019-01-15T02:27:51.613Z,11.00
2019-01-15T02:30:26.116Z,13.20
2019-01-15T02:32:55.590Z,9.87
2019-01-15T02:35:25.318Z,7.10
2019-01-15T02:37:54.800Z,13.70
2019-01-15T02:40:24.314Z,9.23
2019-01-15T02:42:53.736Z,13.37
2019-01-15T02:45:23.388Z,9.93
2019-01-15T02:47:52.943Z,12.80
2019-01-15T02:50:22.926Z,13.07
2019-01-15T02:52:52.412Z,11.50
2019-01-15T02:55:21.841Z,8.83
2019-01-15T02:57:51.289Z,11.77
2019-01-15T03:00:22.800Z,10.50
2019-01-15T03:02:52.374Z,15.90
2019-01-15T03:05:21.984Z,11.97
2019-01-15T03:07:51.463Z,9.93
2019-01-15T03:10:21.881Z,10.50
2019-01-15T03:12:56.751Z,9.40
2019-01-15T03:15:24.623Z,9.77
2019-01-15T03:17:54.359Z,11.73
2019-01-15T03:20:23.788Z,8.00
2019-01-15T03:22:53.312Z,10.17
2019-01-15T03:25:22.706Z,13.50
2019-01-15T03:27:52.135Z,14.90
2019-01-15T03:30:25.249Z,12.10
2019-01-15T03:32:54.687Z,11.50
2019-01-15T03:35:24.111Z,10.27
2019-01-15T03:37:53.570Z,9.60
2019-01-15T03:40:27.265Z,12.83
2019-01-15T03:43:03.284Z,10.50
2019-01-15T03:45:28.100Z,8.57
2019-01-15T03:47:57.490Z,9.83
2019-01-15T03:50:26.918Z,13.17
2019-01-15T03:52:56.473Z,12.40
2019-01-15T03:55:25.949Z,13.00
2019-01-15T03:57:55.374Z,14.70
2019-01-15T04:00:26.009Z,7.37
2019-01-15T04:02:56.584Z,20.90
2019-01-15T04:05:26.021Z,12.27
2019-01-15T04:07:59.600Z,7.20
2019-01-15T04:10:29.303Z,12.00
2019-01-15T04:12:59.042Z,14.70
2019-01-15T04:15:28.476Z,13.30
2019-01-15T04:17:57.957Z,5.37
2019-01-15T04:20:27.419Z,12.10
2019-01-15T04:22:56.867Z,9.20
2019-01-15T04:25:26.378Z,10.93
2019-01-15T04:27:55.820Z,13.30
2019-01-15T04:30:25.390Z,9.57
2019-01-15T04:32:54.892Z,9.83
2019-01-15T04:35:24.323Z,11.43
2019-01-15T04:37:53.785Z,12.60
2019-01-15T04:40:23.697Z,12.40
2019-01-15T04:42:53.249Z,10.13
2019-01-15T04:45:24.173Z,10.13
2019-01-15T04:47:53.687Z,11.27
2019-01-15T04:50:23.123Z,9.30
2019-01-15T04:53:00.411Z,8.03
2019-01-15T04:55:30.065Z,12.83
2019-01-15T04:57:59.518Z,13.90
2019-01-15T05:00:29.019Z,8.60
2019-01-15T05:03:03.671Z,9.83
2019-01-15T05:05:33.128Z,12.20
2019-01-15T05:08:02.656Z,7.57
2019-01-15T05:10:32.126Z,8.17
2019-01-15T05:13:01.546Z,8.00
2019-01-15T05:15:30.994Z,12.57
2019-01-15T05:18:00.457Z,7.83
2019-01-15T05:20:29.957Z,14.37
2019-01-15T05:22:59.393Z,8.77
2019-01-15T05:25:28.853Z,15.47
2019-01-15T05:27:58.295Z,13.50
2019-01-15T05:30:29.757Z,11.60
2019-01-15T05:32:59.234Z,11.03
2019-01-15T05:35:28.672Z,11.87
2019-01-15T05:37:58.186Z,8.17
2019-01-15T05:40:27.645Z,11.00
2019-01-15T05:42:57.277Z,10.93
2019-01-15T05:45:29.921Z,13.17
2019-01-15T05:48:02.849Z,7.10
2019-01-15T05:50:44.921Z,12.97
2019-01-15T05:53:14.506Z,11.50
2019-01-15T05:55:43.929Z,15.60
2019-01-15T05:58:13.378Z,11.77
2019-01-15T06:00:43.002Z,9.00
2019-01-15T06:03:12.424Z,9.23
2019-01-15T06:05:41.907Z,15.53
2019-01-15T06:08:11.338Z,12.83
2019-01-15T06:10:40.802Z,19.47
2019-01-15T06:13:10.272Z,13.77
2019-01-15T06:15:39.790Z,10.97
2019-01-15T06:18:09.200Z,10.50
2019-01-15T06:20:38.670Z,12.20
2019-01-15T06:23:08.092Z,12.47
2019-01-15T06:25:37.488Z,13.30
2019-01-15T06:28:06.945Z,16.13
2019-01-15T06:30:36.353Z,13.90
2019-01-15T06:33:05.794Z,22.83
2019-01-15T06:35:35.251Z,20.47
2019-01-15T06:38:04.742Z,15.13
2019-01-15T06:40:34.226Z,9.57
2019-01-15T06:43:03.871Z,14.33
2019-01-15T06:45:33.505Z,12.23
2019-01-15T06:48:02.925Z,11.97
2019-01-15T06:50:32.389Z,11.87
2019-01-15T06:53:01.923Z,9.20
2019-01-15T06:55:31.379Z,14.00
2019-01-15T06:58:00.856Z,15.03
2019-01-15T07:00:30.276Z,12.40
2019-01-15T07:02:59.719Z,14.07
2019-01-15T07:05:29.204Z,20.27
2019-01-15T07:07:58.649Z,10.20
2019-01-15T07:10:31.205Z,12.77
2019-01-15T07:13:00.709Z,17.30
2019-01-15T07:15:30.165Z,15.57
2019-01-15T07:17:59.598Z,16.40
2019-01-15T07:20:29.075Z,15.00
2019-01-15T07:22:58.498Z,7.80
2019-01-15T07:25:28.279Z,13.27
2019-01-15T07:27:57.931Z,13.70
2019-01-15T07:30:51.516Z,14.10
2019-01-15T07:33:23.862Z,12.77
2019-01-15T07:35:53.302Z,11.97
2019-01-15T07:38:22.726Z,14.53
2019-01-15T07:40:52.312Z,11.90
2019-01-15T07:43:21.744Z,12.37
2019-01-15T07:45:51.168Z,9.90
2019-01-15T07:48:20.636Z,7.07
2019-01-15T07:50:50.060Z,13.30
2019-01-15T07:53:19.490Z,14.40
2019-01-15T07:55:49.073Z,13.27
2019-01-15T07:58:18.496Z,13.43
2019-01-15T08:00:47.921Z,17.23
2019-01-15T08:03:17.385Z,8.00
2019-01-15T08:05:46.810Z,16.87
2019-01-15T08:08:16.248Z,17.43
2019-01-15T08:10:45.710Z,10.77
2019-01-15T08:13:15.349Z,10.70
2019-01-15T08:15:44.801Z,11.53
2019-01-15T08:18:14.276Z,10.10
2019-01-15T08:20:43.729Z,10.80
2019-01-15T08:23:13.139Z,9.97
2019-01-15T08:25:42.628Z,9.33
2019-01-15T08:28:12.064Z,14.30
2019-01-15T08:30:41.501Z,8.83
2019-01-15T08:33:10.980Z,10.70
2019-01-15T08:35:40.406Z,9.27
2019-01-15T08:38:09.836Z,16.57
2019-01-15T08:40:39.786Z,13.00
2019-01-15T08:43:09.230Z,11.10
2019-01-15T08:45:38.664Z,14.37
2019-01-15T08:48:16.642Z,13.07
2019-01-15T08:50:46.798Z,25.03
2019-01-15T08:53:17.802Z,12.30
2019-01-15T08:55:48.738Z,13.57
2019-01-15T08:58:18.163Z,13.93
2019-01-15T09:00:47.602Z,11.70
2019-01-15T09:03:17.089Z,6.67
2019-01-15T09:05:46.529Z,11.30
2019-01-15T09:08:15.917Z,11.03
2019-01-15T09:10:45.403Z,7.87
2019-01-15T09:13:14.892Z,14.10
2019-01-15T09:15:44.305Z,7.07
2019-01-15T09:18:13.755Z,9.37
2019-01-15T09:20:43.347Z,12.93
2019-01-15T09:23:12.783Z,15.87
2019-01-15T09:25:42.221Z,16.80
2019-01-15T09:28:11.705Z,12.77
2019-01-15T09:30:41.151Z,13.03
2019-01-15T09:33:10.584Z,14.27
2019-01-15T09:35:40.057Z,10.97
2019-01-15T09:38:09.789Z,13.97
2019-01-15T09:40:39.209Z,12.90
2019-01-15T09:43:08.724Z,9.67
2019-01-15T09:45:38.161Z,11.53
2019-01-15T09:48:09.327Z,8.43
2019-01-15T09:50:38.897Z,12.70
2019-01-15T09:53:08.616Z,12.00
2019-01-15T09:55:38.046Z,8.47
2019-01-15T09:58:07.625Z,15.60
2019-01-15T10:00:37.073Z,8.00
2019-01-15T10:03:06.536Z,14.97
2019-01-15T10:05:35.995Z,16.73
2019-01-15T10:08:05.572Z,15.07
2019-01-15T10:10:35.018Z,24.33
2019-01-15T10:13:04.784Z,20.67
2019-01-15T10:15:34.373Z,11.17
2019-01-15T10:18:03.903Z,20.63
2019-01-15T10:20:33.320Z,16.27
2019-01-15T10:23:02.779Z,10.53
2019-01-15T10:25:33.045Z,15.23
2019-01-15T10:28:02.502Z,14.80
2019-01-15T10:31:25.522Z,10.33
2019-01-15T10:34:25.207Z,11.67
2019-01-15T10:36:53.074Z,19.83
2019-01-15T10:39:22.506Z,9.50
2019-01-15T10:41:52.417Z,23.27
2019-01-15T10:44:21.879Z,14.53
2019-01-15T10:46:51.320Z,14.07
2019-01-15T10:49:20.751Z,9.47
2019-01-15T10:51:50.254Z,16.63
2019-01-15T10:54:19.679Z,14.23
2019-01-15T10:56:49.253Z,17.63
2019-01-15T10:59:18.854Z,14.20
2019-01-15T11:01:48.312Z,11.50
2019-01-15T11:04:17.748Z,14.43
2019-01-15T11:06:47.216Z,12.73
2019-01-15T11:09:16.809Z,17.80
2019-01-15T11:11:46.288Z,14.00
2019-01-15T11:14:17.941Z,15.43
2019-01-15T11:16:47.388Z,18.80
2019-01-15T11:19:16.854Z,16.37
2019-01-15T11:21:46.360Z,12.00
2019-01-15T11:24:16.171Z,13.47
2019-01-15T11:26:45.616Z,17.60
2019-01-15T11:29:15.115Z,20.07
2019-01-15T11:32:04.048Z,19.87
2019-01-15T11:34:33.526Z,11.63
2019-01-15T11:37:04.937Z,20.20
2019-01-15T11:39:34.935Z,15.17
2019-01-15T11:42:04.638Z,12.13
2019-01-15T11:44:34.100Z,14.77
2019-01-15T11:47:03.573Z,16.30
2019-01-15T11:49:34.647Z,20.80
2019-01-15T11:52:04.117Z,28.80
2019-01-15T11:54:35.847Z,36.27
2019-01-15T11:57:05.381Z,20.43
2019-01-15T11:59:35.232Z,18.10
2019-01-15T12:02:26.801Z,15.77
2019-01-15T12:05:24.581Z,16.80
2019-01-15T12:08:19.065Z,10.87
2019-01-15T12:11:19.803Z,14.40
2019-01-15T12:14:17.051Z,9.93
2019-01-15T12:17:04.107Z,11.63
2019-01-15T12:19:57.643Z,23.20
2019-01-15T12:22:36.263Z,10.03
2019-01-15T12:25:24.364Z,11.37
2019-01-15T12:28:21.766Z,11.83
2019-01-15T12:31:28.615Z,10.53
2019-01-15T12:34:29.014Z,11.87
2019-01-15T12:37:16.142Z,17.20
2019-01-15T12:40:04.500Z,14.17
2019-01-15T12:42:56.029Z,15.43
2019-01-15T12:45:48.700Z,13.60
2019-01-15T12:48:35.932Z,16.60
2019-01-15T12:51:36.700Z,13.20
2019-01-15T12:54:24.158Z,15.93
2019-01-15T12:57:21.244Z,12.23
2019-01-15T13:00:25.112Z,18.90
2019-01-15T13:03:11.730Z,19.43
2019-01-15T13:05:59.088Z,16.63
2019-01-15T13:08:50.238Z,17.47
2019-01-15T13:11:37.494Z,19.83
2019-01-15T13:14:38.184Z,19.60
2019-01-15T13:17:25.703Z,19.37
2019-01-15T13:20:14.093Z,20.73
2019-01-15T13:23:05.568Z,13.93
2019-01-15T13:25:47.324Z,12.33
2019-01-15T13:28:34.767Z,14.87
2019-01-15T13:31:21.352Z,16.07
2019-01-15T13:34:02.049Z,18.63
2019-01-15T13:36:50.442Z,14.80
2019-01-15T13:39:47.953Z,18.97
2019-01-15T13:42:37.101Z,16.00
2019-01-15T13:45:42.188Z,11.27
2019-01-15T13:48:33.764Z,12.27
2019-01-15T13:51:22.189Z,12.10
2019-01-15T13:54:13.387Z,14.17
2019-01-15T13:57:02.947Z,12.60
2019-01-15T13:59:54.279Z,16.47
2019-01-15T14:02:55.080Z,17.20
2019-01-15T14:05:56.340Z,15.20
2019-01-15T14:08:36.011Z,12.43
2019-01-15T14:11:27.427Z,14.67
2019-01-15T14:14:34.351Z,15.40
2019-01-15T14:17:19.026Z,18.37
2019-01-15T14:20:16.404Z,18.17
2019-01-15T14:23:10.985Z,16.10
2019-01-15T14:26:04.353Z,18.13
2019-01-15T14:28:50.608Z,16.57
2019-01-15T14:31:42.387Z,20.70
2019-01-15T14:34:29.613Z,22.43
2019-01-15T14:37:30.363Z,17.07
2019-01-15T14:40:18.812Z,18.90
2019-01-15T14:43:05.839Z,20.87
2019-01-15T14:45:56.483Z,18.60
2019-01-15T14:48:42.053Z,14.43
2019-01-15T14:51:48.572Z,22.63
2019-01-15T14:54:36.931Z,22.13
2019-01-15T14:57:31.161Z,19.63
2019-01-15T15:00:18.476Z,22.43
2019-01-15T15:03:09.683Z,19.40
2019-01-15T15:05:54.954Z,23.97
2019-01-15T15:08:52.416Z,19.63
2019-01-15T15:11:52.875Z,22.13
2019-01-15T15:14:43.837Z,24.90
2019-01-15T15:17:29.677Z,23.63
2019-01-15T15:20:22.949Z,22.50
2019-01-15T15:23:17.679Z,25.03
2019-01-15T15:25:53.939Z,21.13
2019-01-15T15:28:51.251Z,28.13
2019-01-15T15:31:38.244Z,31.27
2019-01-15T15:34:26.783Z,29.23
2019-01-15T15:37:09.933Z,22.63
2019-01-15T15:39:57.207Z,33.57
2019-01-15T15:42:57.973Z,22.20
2019-01-15T15:45:38.888Z,23.63
2019-01-15T15:48:46.054Z,18.07
2019-01-15T15:51:49.524Z,23.13
2019-01-15T15:54:43.595Z,17.97
2019-01-15T15:57:44.107Z,20.03
2019-01-15T16:00:40.778Z,21.63
2019-01-15T16:03:38.530Z,20.73
2019-01-15T16:06:25.717Z,33.23
2019-01-15T16:09:12.796Z,37.20
2019-01-15T16:12:01.154Z,44.00
2019-01-15T16:14:41.831Z,63.13
2019-01-15T16:17:45.571Z,65.30
2019-01-15T16:20:36.970Z,53.63
2019-01-15T16:23:25.328Z,31.17
2019-01-15T16:26:20.026Z,24.10
2019-01-15T16:29:26.505Z,25.97
2019-01-15T16:32:13.482Z,26.70
2019-01-15T16:34:58.319Z,28.93
2019-01-15T16:37:34.520Z,26.53
2019-01-15T16:40:15.244Z,32.53
2019-01-15T16:43:03.679Z,26.80
2019-01-15T16:45:50.629Z,25.63
2019-01-15T16:48:45.142Z,24.00
2019-01-15T16:51:24.985Z,32.03
2019-01-15T16:54:11.349Z,24.10
2019-01-15T16:56:59.757Z,41.90
2019-01-15T16:59:48.773Z,30.83
2019-01-15T17:02:36.107Z,34.03
2019-01-15T17:05:31.238Z,33.97
2019-01-15T17:08:22.778Z,29.20
2019-01-15T17:11:11.693Z,34.37
2019-01-15T17:13:58.651Z,64.23
2019-01-15T17:16:58.422Z,65.43
2019-01-15T17:19:55.785Z,75.77
2019-01-15T17:22:55.884Z,67.43
2019-01-15T17:25:37.433Z,58.73
2019-01-15T17:28:23.005Z,56.33
2019-01-15T17:31:17.551Z,44.40
2019-01-15T17:34:05.939Z,52.30
2019-01-15T17:36:57.325Z,36.23
2019-01-15T17:39:37.354Z,37.47
2019-01-15T17:42:23.329Z,33.90
2019-01-15T17:45:17.847Z,31.70
2019-01-15T17:48:09.014Z,38.93
2019-01-15T17:51:05.672Z,34.33
2019-01-15T17:54:06.104Z,32.43
2019-01-15T17:56:57.650Z,31.93
2019-01-15T17:59:49.066Z,38.00
2019-01-15T18:02:40.183Z,39.00
2019-01-15T18:05:47.068Z,34.33
2019-01-15T18:08:35.525Z,30.47
2019-01-15T18:11:23.117Z,32.57
2019-01-15T18:14:10.179Z,32.93
2019-01-15T18:16:58.590Z,34.83
2019-01-15T18:19:45.790Z,42.27
2019-01-15T18:22:36.958Z,43.50
2019-01-15T18:25:28.821Z,45.47
2019-01-15T18:28:11.584Z,51.17
2019-01-15T18:31:09.105Z,57.70
2019-01-15T18:33:56.274Z,53.23
2019-01-15T18:36:42.684Z,49.83
2019-01-15T18:39:26.170Z,44.00
2019-01-15T18:42:14.626Z,38.93
2019-01-15T18:45:15.110Z,43.63
2019-01-15T18:48:15.668Z,43.67
2019-01-15T18:51:02.600Z,42.00
2019-01-15T18:53:43.496Z,62.47
2019-01-15T18:56:47.274Z,60.90
2019-01-15T18:59:47.793Z,41.50
2019-01-15T19:02:42.036Z,40.20
2019-01-15T19:05:29.077Z,39.87
2019-01-15T19:08:32.582Z,40.17
2019-01-15T19:11:19.589Z,42.20
2019-01-15T19:14:11.076Z,40.13
2019-01-15T19:16:54.164Z,45.30
2019-01-15T19:19:34.088Z,45.83
2019-01-15T19:22:37.883Z,41.97
2019-01-15T19:25:38.583Z,50.20
2019-01-15T19:28:39.084Z,46.90
2019-01-15T19:31:27.490Z,37.47
2019-01-15T19:34:14.738Z,33.43
2019-01-15T19:37:01.951Z,34.90
2019-01-15T19:40:02.662Z,51.50
2019-01-15T19:42:49.766Z,46.57
2019-01-15T19:45:36.693Z,39.83
2019-01-15T19:48:25.168Z,36.20
2019-01-15T19:51:16.362Z,32.90
2019-01-15T19:54:10.885Z,28.73
2019-01-15T19:57:17.674Z,23.20
2019-01-15T20:00:04.746Z,31.67
2019-01-15T20:02:53.762Z,29.70
2019-01-15T20:05:33.352Z,24.97
2019-01-15T20:08:20.700Z,18.27
2019-01-15T20:11:09.142Z,14.60
2019-01-15T20:13:57.574Z,18.73
2019-01-15T20:16:50.041Z,14.43
2019-01-15T20:19:32.483Z,12.10
2019-01-15T20:22:16.381Z,15.50
2019-01-15T20:25:07.531Z,11.07
2019-01-15T20:28:02.145Z,14.97
2019-01-15T20:31:05.701Z,18.27
2019-01-15T20:33:52.805Z,24.97
2019-01-15T20:36:50.329Z,24.47
2019-01-15T20:39:38.899Z,26.57
2019-01-15T20:42:49.378Z,26.93
2019-01-15T20:45:43.966Z,33.20
2019-01-15T20:48:31.098Z,32.60
2019-01-15T20:51:22.685Z,34.07
2019-01-15T20:54:23.216Z,28.13
2019-01-15T20:57:11.648Z,30.23
2019-01-15T21:00:12.332Z,36.67
2019-01-15T21:03:04.107Z,33.30
2019-01-15T21:05:58.864Z,31.10
2019-01-15T21:08:47.313Z,26.80
2019-01-15T21:11:47.811Z,26.03
2019-01-15T21:14:39.263Z,25.67
2019-01-15T21:17:21.044Z,25.47
2019-01-15T21:20:03.294Z,24.27
2019-01-15T21:22:54.852Z,27.00
2019-01-15T21:25:43.269Z,23.60
2019-01-15T21:28:30.625Z,23.07
2019-01-15T21:31:30.948Z,25.87
2019-01-15T21:34:36.228Z,16.50
2019-01-15T21:37:24.650Z,15.43
2019-01-15T21:40:16.265Z,20.07
2019-01-15T21:42:59.380Z,17.97
2019-01-15T21:45:47.879Z,23.20
2019-01-15T21:48:26.153Z,23.60
2019-01-15T21:51:23.758Z,27.60
2019-01-15T21:54:10.800Z,32.37
2019-01-15T21:57:11.135Z,30.30
2019-01-15T21:59:47.806Z,29.63
2019-01-15T22:02:39.270Z,29.97
2019-01-15T22:05:27.094Z,32.07
2019-01-15T22:08:14.651Z,23.37
2019-01-15T22:11:06.039Z,20.80
2019-01-15T22:13:53.408Z,29.00
2019-01-15T22:16:53.963Z,34.27
2019-01-15T22:19:39.492Z,33.17
2019-01-15T22:22:31.197Z,30.23
2019-01-15T22:25:18.675Z,40.83
2019-01-15T22:28:02.449Z,35.07
2019-01-15T22:30:53.692Z,40.00
2019-01-15T22:33:37.813Z,41.07
2019-01-15T22:36:15.350Z,46.50
2019-01-15T22:39:03.783Z,31.97
2019-01-15T22:41:52.300Z,33.83
2019-01-15T22:44:55.874Z,36.60
2019-01-15T22:47:59.404Z,32.10
2019-01-15T22:50:50.985Z,28.23
2019-01-15T22:53:35.342Z,29.90
2019-01-15T22:56:42.183Z,27.33
2019-01-15T22:59:39.590Z,25.83
2019-01-15T23:02:19.780Z,21.07
2019-01-15T23:05:14.286Z,23.23
2019-01-15T23:08:01.898Z,17.93
2019-01-15T23:11:02.684Z,21.40
2019-01-15T23:13:51.146Z,19.90
2019-01-15T23:16:31.364Z,18.67
2019-01-15T23:19:14.961Z,18.57
2019-01-15T23:21:58.145Z,23.57
2019-01-15T23:24:45.498Z,22.63
2019-01-15T23:27:26.446Z,19.63
2019-01-15T23:30:14.879Z,15.73
2019-01-15T23:33:03.463Z,16.27
2019-01-15T23:35:50.966Z,16.03
2019-01-15T23:38:39.570Z,20.30
2019-01-15T23:41:20.233Z,20.07
2019-01-15T23:44:20.832Z,20.30
2019-01-15T23:47:09.304Z,13.77
2019-01-15T23:49:49.374Z,16.07
2019-01-15T23:52:36.585Z,16.60
2019-01-15T23:55:19.869Z,19.83
2019-01-15T23:58:00.996Z,23.93
